createdAt,value
2022-09-12T00:02:53.651Z,80.7
2022-09-12T00:07:53.768Z,80.6
2022-09-12T00:12:53.597Z,80.7
2022-09-12T00:17:53.602Z,80.7
2022-09-12T00:22:53.740Z,80.7
2022-09-12T00:27:53.459Z,80.7
2022-09-12T00:32:53.540Z,80.6
2022-09-12T00:37:53.807Z,80.6
2022-09-12T00:42:53.513Z,80.6
2022-09-12T00:47:53.432Z,80.6
2022-09-12T00:52:53.561Z,80.6
2022-09-12T00:57:53.450Z,80.6
2022-09-12T01:02:53.442Z,80.6
2022-09-12T01:07:53.670Z,80.6
2022-09-12T01:12:53.501Z,80.6
2022-09-12T01:17:53.486Z,80.7
2022-09-12T01:22:53.599Z,80.7
2022-09-12T01:27:53.429Z,80.8
2022-09-12T01:32:53.471Z,80.8
2022-09-12T01:37:53.657Z,80.8
2022-09-12T01:42:53.338Z,80.8
2022-09-12T01:47:53.417Z,80.8
2022-09-12T01:52:53.627Z,80.7
2022-09-12T01:57:53.499Z,80.7
2022-09-12T02:02:53.336Z,80.8
2022-09-12T02:07:53.553Z,80.8
2022-09-12T02:12:53.488Z,80.8
2022-09-12T02:17:53.417Z,80.7
2022-09-12T02:22:53.251Z,80.7
2022-09-12T02:27:53.409Z,80.7
2022-09-12T02:32:53.346Z,80.7
2022-09-12T02:37:53.630Z,80.7
2022-09-12T02:42:53.268Z,80.8
2022-09-12T02:47:53.440Z,80.8
2022-09-12T02:52:53.498Z,80.7
2022-09-12T02:57:53.387Z,80.7
2022-09-12T03:02:53.293Z,80.6
2022-09-12T03:07:53.548Z,80.7
2022-09-12T03:12:53.300Z,80.8
2022-09-12T03:17:53.271Z,80.8
2022-09-12T03:22:53.379Z,80.8
2022-09-12T03:27:53.353Z,80.7
2022-09-12T03:32:53.331Z,80.7
2022-09-12T03:37:53.531Z,80.6
2022-09-12T03:42:53.172Z,80.7
2022-09-12T03:47:53.346Z,80.7
2022-09-12T03:52:53.270Z,80.8
2022-09-12T03:57:53.188Z,80.7
2022-09-12T04:02:53.076Z,80.8
2022-09-12T04:07:53.473Z,80.8
2022-09-12T04:12:53.167Z,80.8
2022-09-12T04:17:53.139Z,80.8
2022-09-12T04:22:53.310Z,80.8
2022-09-12T04:27:53.133Z,80.8
2022-09-12T04:32:53.229Z,80.9
2022-09-12T04:37:53.251Z,80.9
2022-09-12T04:42:53.104Z,80.9
2022-09-12T04:47:53.317Z,81.0
2022-09-12T04:52:53.696Z,81.0
2022-09-12T04:57:53.102Z,81.0
2022-09-12T05:02:53.054Z,81.0
2022-09-12T05:07:53.572Z,81.0
2022-09-12T05:12:53.283Z,81.0
2022-09-12T05:17:53.068Z,80.9
2022-09-12T05:22:53.153Z,80.9
2022-09-12T05:27:53.200Z,81.0
2022-09-12T05:32:53.061Z,81.0
2022-09-12T05:37:53.322Z,81.0
2022-09-12T05:42:53.021Z,81.0
2022-09-12T05:47:53.069Z,81.0
2022-09-12T05:52:53.376Z,81.0
2022-09-12T05:57:53.046Z,81.0
2022-09-12T06:02:52.914Z,81.0
2022-09-12T06:07:53.437Z,81.0
2022-09-12T06:12:53.001Z,81.1
2022-09-12T06:17:52.968Z,81.1
2022-09-12T06:22:53.089Z,81.0
2022-09-12T06:27:52.945Z,80.9
2022-09-12T06:32:52.951Z,80.9
2022-09-12T06:37:53.136Z,80.9
2022-09-12T06:42:52.875Z,80.9
2022-09-12T06:47:53.293Z,80.7
2022-09-12T06:52:53.035Z,80.7
2022-09-12T06:57:53.116Z,80.5
2022-09-12T07:02:52.831Z,80.5
2022-09-12T07:07:52.860Z,80.3
2022-09-12T07:12:53.024Z,80.4
2022-09-12T07:17:53.711Z,80.4
2022-09-12T07:22:53.130Z,80.1
2022-09-12T07:27:52.927Z,80.0
2022-09-12T07:32:52.911Z,79.3
2022-09-12T07:37:53.106Z,79.2
2022-09-12T07:42:52.830Z,79.3
2022-09-12T07:47:52.914Z,79.2
2022-09-12T07:52:53.043Z,78.9
2022-09-12T07:57:53.135Z,79.1
2022-09-12T08:02:52.792Z,78.8
2022-09-12T08:07:55.879Z,78.3
2022-09-12T08:12:52.736Z,77.8
2022-09-12T08:17:52.711Z,78.2
2022-09-12T08:22:52.952Z,78.2
2022-09-12T08:27:52.779Z,78.0
2022-09-12T08:32:52.856Z,77.7
2022-09-12T08:37:52.720Z,77.1
2022-09-12T08:42:52.758Z,76.5
2022-09-12T08:47:52.902Z,76.9
2022-09-12T08:52:52.841Z,76.5
2022-09-12T08:57:52.606Z,75.9
2022-09-12T09:02:52.781Z,75.1
2022-09-12T09:07:53.031Z,74.0
2022-09-12T09:12:52.642Z,74.3
2022-09-12T09:17:53.145Z,74.1
2022-09-12T09:22:53.550Z,73.1
2022-09-12T09:27:52.972Z,74.2
2022-09-12T09:32:53.012Z,73.0
2022-09-12T09:37:56.731Z,73.2
2022-09-12T09:42:52.644Z,72.5
2022-09-12T09:47:52.910Z,72.0
2022-09-12T09:52:52.557Z,72.1
2022-09-12T09:57:52.835Z,70.3
2022-09-12T10:02:52.878Z,69.4
2022-09-12T10:07:52.624Z,69.9
2022-09-12T10:12:52.624Z,70.1
2022-09-12T10:17:52.990Z,70.0
2022-09-12T10:22:52.645Z,69.4
2022-09-12T10:27:52.634Z,68.7
2022-09-12T10:32:52.517Z,69.7
2022-09-12T10:37:52.587Z,68.7
2022-09-12T10:42:52.581Z,66.1
2022-09-12T10:47:52.879Z,68.4
2022-09-12T10:52:52.524Z,68.2
2022-09-12T10:57:52.606Z,67.3
2022-09-12T11:02:52.852Z,67.3
2022-09-12T11:07:52.493Z,66.0
2022-09-12T11:12:52.430Z,66.1
2022-09-12T11:17:53.102Z,63.1
2022-09-12T11:22:52.476Z,64.8
2022-09-12T11:27:52.542Z,64.0
2022-09-12T11:32:52.656Z,65.1
2022-09-12T11:37:52.823Z,63.7
2022-09-12T11:42:52.421Z,64.0
2022-09-12T11:47:52.423Z,64.3
2022-09-12T11:52:52.417Z,64.0
2022-09-12T11:57:52.381Z,62.3
2022-09-12T12:02:53.372Z,61.0
2022-09-12T12:07:52.436Z,62.2
2022-09-12T12:12:52.356Z,62.5
2022-09-12T12:17:52.551Z,61.1
2022-09-12T12:22:52.308Z,61.0
2022-09-12T12:27:52.356Z,61.1
2022-09-12T12:32:52.533Z,60.6
2022-09-12T12:37:52.422Z,60.7
2022-09-12T12:42:52.348Z,60.0
2022-09-12T12:47:52.313Z,60.5
2022-09-12T12:52:52.684Z,60.4
2022-09-12T12:57:52.504Z,60.8
2022-09-12T13:02:52.431Z,60.5
2022-09-12T13:07:52.933Z,60.6
2022-09-12T13:12:52.510Z,60.8
2022-09-12T13:17:53.127Z,61.0
2022-09-12T13:22:52.370Z,61.6
2022-09-12T13:27:52.788Z,61.1
2022-09-12T13:32:52.637Z,60.8
2022-09-12T13:37:56.403Z,60.9
2022-09-12T13:42:52.222Z,60.5
2022-09-12T13:47:55.386Z,60.4
2022-09-12T13:52:53.322Z,60.6
2022-09-12T13:57:52.310Z,61.0
2022-09-12T14:02:52.262Z,60.7
2022-09-12T14:07:52.272Z,60.8
2022-09-12T14:12:52.195Z,60.8
2022-09-12T14:17:52.404Z,60.8
2022-09-12T14:22:52.246Z,60.9
2022-09-12T14:27:52.280Z,60.7
2022-09-12T14:32:52.397Z,60.8
2022-09-12T14:37:52.177Z,61.0
2022-09-12T14:42:52.188Z,61.2
2022-09-12T14:47:52.634Z,61.4
2022-09-12T14:52:52.766Z,61.7
2022-09-12T14:57:52.376Z,61.9
2022-09-12T15:02:52.124Z,61.8
2022-09-12T15:07:52.184Z,61.8
2022-09-12T15:12:52.143Z,62.1
2022-09-12T15:17:52.554Z,62.1
2022-09-12T15:22:52.143Z,62.2
2022-09-12T15:27:52.313Z,62.2
2022-09-12T15:32:52.025Z,62.4
2022-09-12T15:37:52.109Z,62.4
2022-09-12T15:42:52.021Z,62.5
2022-09-12T15:47:52.426Z,62.7
2022-09-12T15:52:52.034Z,62.7
2022-09-12T15:57:52.190Z,62.9
2022-09-12T16:02:52.282Z,63.0
2022-09-12T16:07:52.155Z,63.0
2022-09-12T16:12:51.988Z,63.2
2022-09-12T16:17:52.034Z,63.4
2022-09-12T16:22:52.017Z,63.5
2022-09-12T16:27:52.038Z,63.7
2022-09-12T16:32:52.158Z,63.9
2022-09-12T16:37:52.095Z,64.1
2022-09-12T16:42:52.028Z,64.2
2022-09-12T16:47:52.239Z,64.4
2022-09-12T16:52:51.929Z,64.6
2022-09-12T16:57:52.019Z,64.8
2022-09-12T17:02:52.220Z,65.0
2022-09-12T17:07:51.976Z,65.1
2022-09-12T17:12:51.995Z,65.3
2022-09-12T17:17:52.517Z,65.4
2022-09-12T17:22:51.973Z,65.5
2022-09-12T17:27:52.033Z,65.7
2022-09-12T17:32:52.209Z,65.9
2022-09-12T17:37:52.097Z,66.1
2022-09-12T17:42:52.049Z,66.4
2022-09-12T17:47:52.133Z,66.4
2022-09-12T17:52:52.028Z,66.6
2022-09-12T17:57:52.301Z,66.7
2022-09-12T18:02:52.151Z,67.0
2022-09-12T18:07:51.856Z,67.2
2022-09-12T18:12:51.906Z,67.4
2022-09-12T18:17:52.103Z,67.7
2022-09-12T18:22:51.996Z,67.8
2022-09-12T18:27:51.803Z,67.9
2022-09-12T18:32:52.076Z,68.0
2022-09-12T18:37:52.094Z,68.1
2022-09-12T18:42:52.045Z,68.2
2022-09-12T18:52:53.339Z,68.4
2022-09-12T18:57:51.864Z,68.4
2022-09-12T19:02:51.995Z,68.6
2022-09-12T19:07:51.841Z,68.8
2022-09-12T19:17:52.060Z,68.9
2022-09-12T19:22:51.879Z,69.2
2022-09-12T19:27:51.732Z,69.3
2022-09-12T19:32:51.777Z,69.3
2022-09-12T19:37:51.781Z,69.3
2022-09-12T19:42:51.692Z,69.4
2022-09-12T19:47:51.886Z,69.6
2022-09-12T19:52:51.818Z,69.8
2022-09-12T19:57:51.782Z,69.8
2022-09-12T20:02:52.076Z,69.9
2022-09-12T20:07:51.689Z,69.9
2022-09-12T20:12:51.782Z,70.1
2022-09-12T20:17:51.915Z,70.2
2022-09-12T20:22:51.584Z,70.2
2022-09-12T20:27:51.704Z,70.4
2022-09-12T20:32:51.781Z,70.6
2022-09-12T20:37:51.625Z,70.6
2022-09-12T20:42:51.583Z,70.8
2022-09-12T20:47:51.906Z,70.8
2022-09-12T20:52:51.718Z,71.0
2022-09-12T20:57:51.631Z,71.1
2022-09-12T21:02:51.631Z,71.1
2022-09-12T21:07:51.586Z,71.3
2022-09-12T21:12:51.537Z,71.4
2022-09-12T21:17:51.907Z,71.4
2022-09-12T21:22:51.530Z,71.6
2022-09-12T21:27:51.505Z,71.7
2022-09-12T21:32:51.701Z,71.7
2022-09-12T21:37:51.551Z,71.8
2022-09-12T21:42:51.484Z,72.0
2022-09-12T21:47:51.641Z,72.1
2022-09-12T21:52:51.490Z,72.1
2022-09-12T21:57:51.491Z,72.0
2022-09-12T22:02:51.655Z,72.2
2022-09-12T22:07:51.486Z,72.2
2022-09-12T22:12:51.599Z,72.5
2022-09-12T22:17:51.619Z,72.6
2022-09-12T22:22:51.456Z,72.7
2022-09-12T22:27:51.452Z,72.7
2022-09-12T22:32:51.627Z,72.8
2022-09-12T22:37:51.420Z,73.0
2022-09-12T22:42:51.383Z,73.1
2022-09-12T22:47:52.483Z,73.2
2022-09-12T22:52:51.378Z,73.3
2022-09-12T22:57:51.357Z,73.4
2022-09-12T23:02:51.605Z,73.5
2022-09-12T23:07:51.508Z,73.6
2022-09-12T23:12:51.448Z,73.7
2022-09-12T23:17:51.294Z,73.6
2022-09-12T23:22:51.496Z,73.6
2022-09-12T23:27:51.454Z,73.6
2022-09-12T23:32:51.612Z,73.7
2022-09-12T23:37:51.402Z,73.8
2022-09-12T23:42:51.329Z,73.8
2022-09-12T23:47:51.551Z,73.7
2022-09-12T23:52:51.412Z,73.8
2022-09-12T23:57:51.430Z,74.0
